Time;durP1;ratioP1;P1;durP2;ratioP2;P2;SDS_P1;SDS_P2;PMS_P1;PMS_P2;Temp;Humidity;BMP_temperature;BMP_pressure;BME280_temperature;BME280_humidity;BME280_pressure;Samples;Min_cycle;Max_cycle;Signal;HPM_P1;HPM_P2
2022/08/14 00:00:13;;;;;;;15.10;13.70;;;;;;;17.95;100.00;96300.08;108477;1268;22631;-75
2022/08/14 00:03:05;;;;;;;16.70;15.00;;;;;;;17.88;100.00;96294.58;108532;1267;22543;-76
2022/08/14 00:05:36;;;;;;;15.20;13.80;;;;;;;17.86;100.00;96294.09;108484;1267;24279;-76
2022/08/14 00:08:07;;;;;;;15.00;13.50;;;;;;;17.88;100.00;96295.78;108354;1267;36892;-75
2022/08/14 00:10:39;;;;;;;15.30;13.80;;;;;;;17.94;100.00;96297.66;108411;1267;22469;-75
2022/08/14 00:13:11;;;;;;;14.90;13.40;;;;;;;17.99;100.00;96297.06;108493;1267;24237;-76
2022/08/14 00:15:45;;;;;;;14.70;13.40;;;;;;;18.04;100.00;96297.31;108564;1267;23895;-75
2022/08/14 00:18:19;;;;;;;15.90;14.40;;;;;;;18.08;100.00;96297.60;108479;1267;43106;-76
2022/08/14 00:20:51;;;;;;;15.30;13.80;;;;;;;18.07;100.00;96294.83;108472;1267;22716;-75
2022/08/14 00:23:22;;;;;;;15.20;13.80;;;;;;;18.04;100.00;96291.27;108450;1267;22559;-76
2022/08/14 00:25:56;;;;;;;14.90;13.50;;;;;;;18.02;100.00;96291.73;108467;1267;22898;-75
2022/08/14 00:28:27;;;;;;;15.40;13.80;;;;;;;17.98;100.00;96290.76;108395;1268;36344;-75
2022/08/14 00:30:59;;;;;;;15.30;13.80;;;;;;;17.92;100.00;96287.43;108507;1267;23234;-76
2022/08/14 00:33:33;;;;;;;15.30;13.20;;;;;;;17.91;100.00;96285.46;108460;1267;25407;-75
2022/08/14 00:36:05;;;;;;;14.20;12.90;;;;;;;17.91;100.00;96288.36;108506;1267;22514;-75
2022/08/14 00:38:36;;;;;;;15.30;13.80;;;;;;;17.91;100.00;96284.17;108453;1267;25973;-75
2022/08/14 00:41:09;;;;;;;15.10;13.70;;;;;;;17.91;100.00;96281.11;108447;1267;25281;-76
2022/08/14 00:43:40;;;;;;;14.50;13.20;;;;;;;17.94;100.00;96278.20;108533;1268;22549;-75
2022/08/14 00:46:12;;;;;;;14.00;12.50;;;;;;;17.94;100.00;96274.14;108512;1268;22578;-76
2022/08/14 00:48:43;;;;;;;14.30;13.00;;;;;;;17.93;100.00;96268.36;108466;1268;26885;-75
2022/08/14 00:51:14;;;;;;;15.90;14.40;;;;;;;17.94;100.00;96263.49;108547;1268;23704;-75
2022/08/14 00:53:49;;;;;;;15.10;13.70;;;;;;;17.95;100.00;96263.14;108420;1268;22712;-75
2022/08/14 00:56:20;;;;;;;15.20;13.60;;;;;;;17.96;100.00;96263.23;108506;1268;22544;-75
2022/08/14 00:58:53;;;;;;;14.60;13.20;;;;;;;17.97;100.00;96261.54;108465;1267;23505;-75
2022/08/14 01:01:24;;;;;;;14.20;12.90;;;;;;;18.00;100.00;96258.23;108513;1268;22461;-75
2022/08/14 01:03:57;;;;;;;15.10;13.60;;;;;;;18.00;100.00;96262.14;108481;1268;23851;-75
2022/08/14 01:06:31;;;;;;;14.90;13.60;;;;;;;17.99;100.00;96260.30;108519;1268;23081;-75
2022/08/14 01:09:04;;;;;;;15.20;13.60;;;;;;;17.98;100.00;96262.68;108409;1268;48518;-75
2022/08/14 01:11:38;;;;;;;14.90;13.50;;;;;;;17.97;100.00;96262.37;108473;1268;25382;-75
2022/08/14 01:14:09;;;;;;;16.60;15.00;;;;;;;17.95;100.00;96256.56;108545;1268;22625;-75
2022/08/14 01:16:42;;;;;;;16.70;15.10;;;;;;;17.93;100.00;96257.34;108531;1268;22479;-75
2022/08/14 01:22:05;;;;;;;16.90;15.40;;;;;;;17.95;100.00;96253.50;108517;1268;24247;-75
2022/08/14 01:24:36;;;;;;;18.60;16.70;;;;;;;17.97;100.00;96261.74;108514;1268;22683;-76
2022/08/14 01:27:07;;;;;;;18.90;17.00;;;;;;;17.96;100.00;96262.02;108478;1267;24210;-75
2022/08/14 01:29:38;;;;;;;19.00;17.30;;;;;;;17.91;100.00;96260.95;108465;1265;24016;-76
2022/08/14 01:32:10;;;;;;;19.70;17.90;;;;;;;17.90;100.00;96259.61;108526;1268;22537;-76
2022/08/14 01:34:41;;;;;;;19.20;17.30;;;;;;;17.93;100.00;96259.49;108440;1268;22536;-75
2022/08/14 01:37:12;;;;;;;18.70;16.80;;;;;;;17.95;100.00;96260.14;108525;1268;22516;-75
2022/08/14 01:39:44;;;;;;;19.70;17.90;;;;;;;17.96;100.00;96258.73;108447;1268;29911;-75
2022/08/14 01:42:15;;;;;;;18.30;16.40;;;;;;;17.98;100.00;96258.35;108447;1268;22547;-75
2022/08/14 01:44:49;;;;;;;18.70;16.80;;;;;;;18.00;100.00;96262.55;108535;1268;22505;-75
2022/08/14 01:47:21;;;;;;;19.10;17.30;;;;;;;18.02;100.00;96261.91;108491;1268;24276;-75
2022/08/14 01:49:54;;;;;;;20.10;18.20;;;;;;;18.04;100.00;96267.42;108427;1268;28811;-75
2022/08/14 01:52:25;;;;;;;21.50;19.40;;;;;;;18.03;100.00;96264.27;108542;1266;22577;-75
2022/08/14 01:54:56;;;;;;;22.70;20.30;;;;;;;18.00;100.00;96262.61;108540;1268;22539;-76
2022/08/14 01:57:28;;;;;;;20.80;18.80;;;;;;;17.97;100.00;96258.08;108504;1268;22552;-75
2022/08/14 01:59:59;;;;;;;21.50;19.30;;;;;;;17.94;100.00;96257.44;108468;1268;26384;-75
2022/08/14 02:02:30;;;;;;;22.00;19.70;;;;;;;17.93;100.00;96255.02;108550;1268;22578;-75
2022/08/14 02:05:01;;;;;;;21.90;19.80;;;;;;;17.89;100.00;96252.62;108539;1268;22552;-76
2022/08/14 02:07:32;;;;;;;21.50;19.40;;;;;;;17.89;100.00;96246.40;108504;1268;24221;-75
2022/08/14 02:10:05;;;;;;;21.60;19.50;;;;;;;17.92;100.00;96246.89;108489;1268;24208;-75
2022/08/14 02:12:36;;;;;;;24.20;21.90;;;;;;;17.96;100.00;96246.69;108450;1267;23855;-75
2022/08/14 02:15:10;;;;;;;25.60;23.00;;;;;;;17.90;100.00;96250.04;108525;1268;22527;-75
2022/08/14 02:17:41;;;;;;;23.50;21.00;;;;;;;17.82;100.00;96246.23;108525;1268;23904;-76
2022/08/14 02:20:13;;;;;;;27.90;22.40;;;;;;;17.74;100.00;96249.52;108436;1268;22553;-76
2022/08/14 02:22:44;;;;;;;23.70;21.40;;;;;;;17.71;100.00;96246.64;108546;1268;24309;-75
2022/08/14 02:25:15;;;;;;;25.90;23.10;;;;;;;17.68;100.00;96244.55;108517;1265;22640;-76
2022/08/14 02:27:47;;;;;;;28.70;22.40;;;;;;;17.65;100.00;96246.44;108481;1268;28894;-75
2022/08/14 02:30:18;;;;;;;25.50;22.90;;;;;;;17.62;100.00;96241.90;108470;1268;22557;-75
2022/08/14 02:32:49;;;;;;;86.50;24.00;;;;;;;17.61;100.00;96236.11;108525;1268;22677;-76
2022/08/14 02:35:22;;;;;;;23.40;21.20;;;;;;;17.59;100.00;96238.48;108449;1268;23142;-75
2022/08/14 02:37:55;;;;;;;21.80;19.60;;;;;;;17.62;100.00;96235.84;108485;1268;24201;-75
2022/08/14 02:40:30;;;;;;;19.00;17.10;;;;;;;17.67;100.00;96233.33;108422;1268;22742;-76
2022/08/14 02:43:01;;;;;;;18.10;16.50;;;;;;;17.70;100.00;96228.01;108532;1267;24210;-75
2022/08/14 02:45:33;;;;;;;17.30;15.60;;;;;;;17.74;100.00;96227.64;108437;1268;23962;-76
2022/08/14 02:48:06;;;;;;;19.30;17.40;;;;;;;17.76;100.00;96230.23;108475;1268;29158;-76
2022/08/14 02:50:40;;;;;;;19.00;17.20;;;;;;;17.78;100.00;96227.68;108433;1268;22549;-75
2022/08/14 02:53:12;;;;;;;19.90;17.90;;;;;;;17.83;100.00;96226.42;108416;1268;22512;-76
2022/08/14 02:55:45;;;;;;;21.50;19.50;;;;;;;17.83;100.00;96226.20;108516;1268;22537;-75
2022/08/14 02:58:17;;;;;;;22.90;20.70;;;;;;;17.76;100.00;96223.94;108445;1267;27084;-76
2022/08/14 03:00:48;;;;;;;20.50;18.40;;;;;;;17.70;100.00;96222.46;108451;1268;25525;-76
2022/08/14 03:03:22;;;;;;;19.40;17.60;;;;;;;17.64;100.00;96216.55;108485;1268;23587;-76
2022/08/14 03:05:54;;;;;;;18.80;17.10;;;;;;;17.62;100.00;96220.89;108546;1268;22532;-75
2022/08/14 03:08:30;;;;;;;18.50;16.80;;;;;;;17.67;100.00;96223.90;108382;1268;31715;-76
2022/08/14 03:11:05;;;;;;;19.20;17.30;;;;;;;17.69;100.00;96223.98;108535;1268;22533;-75
2022/08/14 03:13:38;;;;;;;18.40;16.60;;;;;;;17.70;100.00;96226.79;108477;1268;22482;-75
2022/08/14 03:16:16;;;;;;;14.90;12.60;;;;;;;17.72;100.00;96226.21;108504;1268;22533;-76
2022/08/14 03:18:52;;;;;;;13.80;12.50;;;;;;;17.70;100.00;96224.02;108497;1268;25895;-75
2022/08/14 03:21:25;;;;;;;9.80;8.60;;;;;;;17.66;100.00;96222.55;108443;1268;22646;-75
2022/08/14 03:24:05;;;;;;;8.40;7.60;;;;;;;17.62;100.00;96220.74;108438;1268;23852;-76
2022/08/14 03:26:38;;;;;;;10.30;9.30;;;;;;;17.60;100.00;96219.63;108537;1268;22665;-76
2022/08/14 03:29:11;;;;;;;9.30;8.40;;;;;;;17.65;100.00;96217.23;108457;1267;30625;-75
2022/08/14 03:31:42;;;;;;;8.40;7.60;;;;;;;17.67;100.00;96216.80;108448;1268;22542;-75
2022/08/14 03:34:13;;;;;;;7.40;6.50;;;;;;;17.69;100.00;96220.15;108508;1268;22476;-75
2022/08/14 03:36:44;;;;;;;6.00;5.20;;;;;;;17.68;100.00;96218.19;108442;1268;22569;-75
2022/08/14 03:39:19;;;;;;;5.60;5.10;;;;;;;17.66;100.00;96219.71;108474;1268;28686;-75
2022/08/14 03:41:51;;;;;;;5.10;4.70;;;;;;;17.65;100.00;96222.75;108455;1267;23399;-76
2022/08/14 03:44:22;;;;;;;4.60;4.20;;;;;;;17.64;100.00;96221.42;108415;1268;22467;-76
2022/08/14 03:46:53;;;;;;;4.80;4.30;;;;;;;17.67;100.00;96223.74;108509;1268;22544;-75
2022/08/14 03:49:25;;;;;;;5.60;5.00;;;;;;;17.71;100.00;96222.60;108383;1268;29056;-76
2022/08/14 03:51:56;;;;;;;8.00;7.20;;;;;;;17.75;100.00;96220.75;108398;1268;22540;-76
2022/08/14 03:54:28;;;;;;;10.80;9.70;;;;;;;17.77;100.00;96221.60;108466;1268;23963;-75
2022/08/14 03:57:00;;;;;;;10.50;9.40;;;;;;;17.80;100.00;96219.23;108365;1268;22841;-76
2022/08/14 03:59:32;;;;;;;10.60;9.60;;;;;;;17.82;100.00;96217.05;108437;1268;28284;-76
2022/08/14 04:02:03;;;;;;;10.80;9.80;;;;;;;17.85;100.00;96218.29;108477;1268;22626;-75
2022/08/14 04:04:34;;;;;;;11.00;9.70;;;;;;;17.87;100.00;96220.90;108478;1268;22549;-76
2022/08/14 04:07:09;;;;;;;9.60;8.50;;;;;;;17.90;100.00;96217.33;107424;1268;1341137;-75
2022/08/14 04:09:40;;;;;;;8.60;7.70;;;;;;;17.91;100.00;96218.80;108468;1268;22612;-75
2022/08/14 04:12:11;;;;;;;11.10;8.10;;;;;;;17.88;100.00;96215.86;108538;1268;24023;-76
2022/08/14 04:14:43;;;;;;;8.30;7.50;;;;;;;17.87;100.00;96221.89;108483;1268;22554;-76
2022/08/14 04:17:14;;;;;;;8.90;8.00;;;;;;;17.88;100.00;96221.33;108441;1268;22615;-75
2022/08/14 04:19:46;;;;;;;9.50;7.10;;;;;;;17.91;100.00;96222.26;108448;1268;35140;-75
2022/08/14 04:22:20;;;;;;;8.10;7.30;;;;;;;17.94;100.00;96221.50;108485;1268;23208;-75
2022/08/14 04:24:52;;;;;;;7.20;6.50;;;;;;;17.95;100.00;96223.91;108500;1268;22558;-75
2022/08/14 04:27:23;;;;;;;7.30;6.60;;;;;;;17.92;100.00;96226.19;108521;1268;22912;-76
2022/08/14 04:29:56;;;;;;;9.30;8.40;;;;;;;17.86;100.00;96230.65;108330;1267;29780;-76
2022/08/14 04:32:27;;;;;;;9.30;8.30;;;;;;;17.78;100.00;96225.69;108425;1268;22523;-75
2022/08/14 04:34:58;;;;;;;7.70;6.90;;;;;;;17.73;100.00;96227.27;108498;1268;22902;-76
2022/08/14 04:45:55;;;;;;;9.10;7.10;;;;;;;17.62;100.00;96224.88;108513;1268;23745;-76
2022/08/14 04:48:28;;;;;;;9.40;7.40;;;;;;;17.60;100.00;96222.70;108452;1266;22783;-75
2022/08/14 04:50:59;;;;;;;7.30;5.90;;;;;;;17.62;100.00;96221.38;108487;1268;22544;-75
2022/08/14 04:53:32;;;;;;;7.40;5.80;;;;;;;17.66;100.00;96222.65;108502;1268;22606;-75
2022/08/14 04:56:04;;;;;;;5.70;5.20;;;;;;;17.71;100.00;96224.97;108520;1268;25370;-76
2022/08/14 04:58:37;;;;;;;5.10;4.60;;;;;;;17.79;100.00;96223.48;108455;1268;26931;-75
2022/08/14 05:01:10;;;;;;;6.30;4.80;;;;;;;17.86;100.00;96221.17;108545;1268;22557;-75
2022/08/14 05:03:42;;;;;;;4.90;4.40;;;;;;;17.92;100.00;96214.09;108493;1268;23701;-75
2022/08/14 05:06:14;;;;;;;7.60;6.20;;;;;;;17.99;100.00;96216.66;108521;1267;24288;-76
2022/08/14 05:08:45;;;;;;;6.20;5.30;;;;;;;18.03;100.00;96216.69;108351;1268;26330;-76
2022/08/14 05:11:18;;;;;;;6.00;5.40;;;;;;;18.08;100.00;96210.77;108501;1268;22551;-75
2022/08/14 05:13:49;;;;;;;5.90;4.90;;;;;;;18.14;100.00;96211.92;108394;1268;22527;-75
2022/08/14 05:16:29;;;;;;;6.70;4.70;;;;;;;18.17;100.00;96212.11;108428;1268;25406;-75
2022/08/14 05:18:59;;;;;;;;;;;;;;;18.14;100.00;96216.52;108478;1268;29738;-75
2022/08/14 05:21:30;;;;;;;6.80;4.60;;;;;;;18.06;100.00;96218.76;108400;1268;22773;-76
2022/08/14 05:24:03;;;;;;;5.20;4.70;;;;;;;18.03;100.00;96217.66;108509;1268;22572;-75
2022/08/14 05:26:35;;;;;;;4.70;4.20;;;;;;;17.99;100.00;96212.75;108408;1268;22535;-76
2022/08/14 05:29:08;;;;;;;4.80;4.30;;;;;;;18.00;100.00;96211.25;108424;1268;45875;-75
2022/08/14 05:31:40;;;;;;;5.40;4.60;;;;;;;18.04;100.00;96213.48;108488;1268;22530;-75
2022/08/14 05:34:11;;;;;;;6.20;4.40;;;;;;;18.03;100.00;96214.52;108407;1268;24224;-76
2022/08/14 05:36:42;;;;;;;5.50;4.90;;;;;;;17.99;100.00;96216.84;108469;1268;23719;-76
2022/08/14 05:39:13;;;;;;;5.30;4.40;;;;;;;17.94;100.00;96216.16;108453;1268;30561;-76
2022/08/14 05:41:44;;;;;;;4.80;4.30;;;;;;;17.86;100.00;96220.71;108517;1268;22826;-76
2022/08/14 05:44:15;;;;;;;4.90;3.80;;;;;;;17.79;100.00;96219.21;108384;1268;23282;-76
2022/08/14 05:46:46;;;;;;;4.70;4.20;;;;;;;17.75;100.00;96218.09;108482;1268;22482;-76
2022/08/14 05:49:18;;;;;;;5.30;4.30;;;;;;;17.73;100.00;96219.24;108433;1268;37128;-75
2022/08/14 05:51:48;;;;;;;5.40;3.80;;;;;;;17.75;100.00;96220.61;108508;1268;22476;-75
2022/08/14 05:54:20;;;;;;;4.50;3.90;;;;;;;17.76;100.00;96220.01;108529;1266;22662;-76
2022/08/14 05:56:51;;;;;;;4.60;4.20;;;;;;;17.77;100.00;96221.35;108417;1268;24227;-76
2022/08/14 05:59:22;;;;;;;4.40;4.00;;;;;;;17.80;100.00;96220.84;108416;1268;35208;-76
2022/08/14 06:01:53;;;;;;;4.30;3.90;;;;;;;17.85;100.00;96224.56;108533;1266;22463;-76
2022/08/14 06:04:24;;;;;;;5.10;3.60;;;;;;;17.86;100.00;96226.52;108486;1268;22559;-76
2022/08/14 06:06:55;;;;;;;3.70;3.30;;;;;;;17.86;100.00;96230.95;108517;1268;26022;-75
2022/08/14 06:09:27;;;;;;;3.50;3.20;;;;;;;17.87;100.00;96234.05;108312;1268;30058;-75
2022/08/14 06:11:58;;;;;;;3.90;3.20;;;;;;;17.90;100.00;96233.57;108508;1268;22596;-75
2022/08/14 06:14:32;;;;;;;3.00;2.80;;;;;;;17.96;100.00;96231.82;108555;1268;22557;-75
2022/08/14 06:17:04;;;;;;;3.70;3.30;;;;;;;18.01;100.00;96232.54;108507;1268;25561;-76
2022/08/14 06:19:36;;;;;;;3.20;3.00;;;;;;;18.06;100.00;96227.41;108348;1268;25485;-75
2022/08/14 06:22:07;;;;;;;3.40;2.90;;;;;;;18.08;100.00;96229.70;108532;1265;25289;-75
2022/08/14 06:24:39;;;;;;;3.70;3.00;;;;;;;18.11;100.00;96233.55;108526;1268;22532;-76
2022/08/14 06:27:10;;;;;;;2.80;2.60;;;;;;;18.10;100.00;96238.48;108394;1267;22473;-76
2022/08/14 06:29:41;;;;;;;4.40;3.00;;;;;;;18.10;100.00;96235.58;108443;1268;28812;-75
2022/08/14 06:32:13;;;;;;;3.20;2.90;;;;;;;18.16;100.00;96232.77;108542;1268;22520;-76
2022/08/14 06:34:44;;;;;;;2.50;2.30;;;;;;;18.22;100.00;96232.21;108430;1268;22535;-76
2022/08/14 06:37:17;;;;;;;2.30;2.10;;;;;;;18.28;100.00;96234.45;108513;1268;24248;-75
2022/08/14 06:39:48;;;;;;;1.60;1.50;;;;;;;18.33;100.00;96230.48;108450;1268;36688;-75
2022/08/14 06:42:19;;;;;;;1.30;1.10;;;;;;;18.36;100.00;96226.18;108414;1268;22540;-75
2022/08/14 06:44:52;;;;;;;1.80;1.60;;;;;;;18.41;100.00;96230.08;108529;1268;24694;-75
2022/08/14 06:47:23;;;;;;;1.90;1.80;;;;;;;18.46;100.00;96227.24;108547;1268;22524;-76
2022/08/14 06:49:54;;;;;;;1.50;1.40;;;;;;;18.53;100.00;96225.39;108474;1268;29407;-76
2022/08/14 06:52:25;;;;;;;2.90;2.50;;;;;;;18.61;100.00;96222.73;108400;1268;23695;-76
2022/08/14 06:54:57;;;;;;;2.80;2.60;;;;;;;18.73;100.00;96220.64;108328;1268;22555;-76
2022/08/14 06:57:37;;;;;;;2.40;2.20;;;;;;;18.90;100.00;96219.20;108408;1268;22469;-75
2022/08/14 07:00:12;;;;;;;4.40;3.50;;;;;;;18.90;100.00;96215.60;108504;1267;22550;-76
2022/08/14 07:08:29;;;;;;;3.80;3.50;;;;;;;18.94;100.00;96219.32;108351;1268;36630;-76
2022/08/14 07:11:03;;;;;;;3.50;3.20;;;;;;;18.94;100.00;96221.55;108545;1268;24015;-76
2022/08/14 07:13:34;;;;;;;3.40;3.10;;;;;;;19.03;100.00;96219.19;108422;1268;22627;-76
2022/08/14 07:16:06;;;;;;;4.20;2.80;;;;;;;19.10;100.00;96222.15;108540;1268;22619;-76
2022/08/14 07:18:37;;;;;;;4.00;3.60;;;;;;;19.09;100.00;96223.42;108344;1268;23690;-76
2022/08/14 07:21:09;;;;;;;3.30;3.00;;;;;;;19.05;100.00;96225.01;108537;1266;23339;-76
2022/08/14 07:23:41;;;;;;;4.30;3.90;;;;;;;19.02;100.00;96223.09;108537;1267;22539;-76
2022/08/14 07:26:14;;;;;;;4.70;4.10;;;;;;;19.11;100.00;96215.17;108408;1267;22544;-76
2022/08/14 07:28:48;;;;;;;5.10;4.20;;;;;;;19.27;100.00;96213.77;108456;1268;25836;-76
2022/08/14 07:31:21;;;;;;;3.80;3.50;;;;;;;19.39;100.00;96216.56;108411;1268;22470;-76
2022/08/14 07:33:54;;;;;;;4.40;3.20;;;;;;;19.54;100.00;96219.96;108547;1267;23304;-75
2022/08/14 07:36:29;;;;;;;3.00;2.70;;;;;;;19.60;100.00;96220.27;108448;1267;22525;-76
2022/08/14 07:39:04;;;;;;;3.50;3.20;;;;;;;19.59;100.00;96220.95;108502;1268;34665;-76
2022/08/14 07:41:38;;;;;;;3.80;3.40;;;;;;;19.96;100.00;96221.69;108543;1267;22548;-75
2022/08/14 07:44:12;;;;;;;3.10;2.90;;;;;;;20.73;100.00;96225.31;108416;1267;23470;-75
2022/08/14 07:46:45;;;;;;;2.40;2.20;;;;;;;22.03;100.00;96223.43;108520;1268;22523;-76
2022/08/14 07:49:21;;;;;;;3.60;2.00;;;;;;;23.43;100.00;96223.13;108323;1267;40237;-76
2022/08/14 07:51:53;;;;;;;1.70;1.60;;;;;;;24.14;100.00;96219.86;108544;1267;23621;-76
2022/08/14 07:54:25;;;;;;;1.80;1.70;;;;;;;24.48;99.89;96220.75;108408;1268;22525;-76
2022/08/14 07:56:56;;;;;;;1.90;1.80;;;;;;;24.42;96.94;96225.43;108521;1268;22535;-76
2022/08/14 07:59:29;;;;;;;2.00;1.80;;;;;;;23.88;94.80;96227.00;108466;1268;24354;-77
2022/08/14 08:02:01;;;;;;;2.30;2.00;;;;;;;23.30;93.22;96229.02;108555;1268;22757;-76
2022/08/14 08:04:36;;;;;;;1.90;1.80;;;;;;;22.70;92.34;96232.95;108521;1268;22531;-77
2022/08/14 08:07:07;;;;;;;1.50;1.40;;;;;;;22.34;93.67;96231.77;108555;1268;23842;-76
2022/08/14 08:09:42;;;;;;;1.60;1.50;;;;;;;22.27;94.19;96231.41;108460;1268;29315;-76
2022/08/14 08:12:16;;;;;;;1.90;1.80;;;;;;;22.77;96.58;96223.84;108386;1268;22484;-77
2022/08/14 08:14:48;;;;;;;1.50;1.40;;;;;;;25.70;98.70;96213.37;108518;1268;22594;-77
2022/08/14 08:17:19;;;;;;;1.90;1.60;;;;;;;26.43;90.86;96218.52;108417;1268;22523;-77
2022/08/14 08:19:51;;;;;;;1.50;1.40;;;;;;;25.56;84.46;96213.63;108337;1268;30541;-77
2022/08/14 08:22:22;;;;;;;1.80;1.50;;;;;;;24.61;83.65;96219.11;108517;1267;22613;-77
2022/08/14 08:24:53;;;;;;;2.10;2.00;;;;;;;23.93;83.96;96215.13;108453;1268;22554;-77
2022/08/14 08:27:25;;;;;;;3.30;2.90;;;;;;;23.61;84.33;96216.53;108533;1265;22661;-77
2022/08/14 08:30:08;;;;;;;2.70;2.50;;;;;;;23.34;86.36;96218.39;108268;1268;33103;-77
2022/08/14 08:32:46;;;;;;;2.50;2.30;;;;;;;23.07;86.53;96213.15;108412;1267;22649;-77
2022/08/14 08:35:23;;;;;;;2.70;2.50;;;;;;;22.90;88.15;96211.31;108534;1268;22543;-77
2022/08/14 08:38:00;;;;;;;3.00;2.80;;;;;;;23.02;89.69;96210.77;108430;1268;23408;-77
2022/08/14 08:40:35;;;;;;;2.70;2.50;;;;;;;23.36;90.58;96206.44;108378;1265;23832;-77
2022/08/14 08:43:08;;;;;;;2.90;2.60;;;;;;;23.78;90.39;96204.63;108361;1268;22538;-77
2022/08/14 08:45:42;;;;;;;3.00;2.70;;;;;;;24.29;88.35;96207.30;108488;1268;22574;-77
2022/08/14 08:48:15;;;;;;;3.20;2.80;;;;;;;23.97;85.69;96208.73;108264;1268;29933;-77
2022/08/14 08:50:47;;;;;;;2.90;2.70;;;;;;;23.51;85.17;96213.02;108520;1268;22577;-76
2022/08/14 08:53:18;;;;;;;2.80;2.60;;;;;;;23.14;85.85;96217.41;108508;1268;22589;-77
2022/08/14 08:55:49;;;;;;;3.20;2.70;;;;;;;22.94;86.88;96210.84;108515;1268;22613;-76
2022/08/14 08:58:21;;;;;;;3.40;3.10;;;;;;;22.79;86.70;96213.95;108461;1268;24127;-77
2022/08/14 09:00:54;;;;;;;3.40;3.00;;;;;;;22.24;85.75;96220.56;108480;1268;22603;-77
2022/08/14 09:03:27;;;;;;;3.20;2.90;;;;;;;21.86;87.47;96214.22;108416;1268;23560;-77
2022/08/14 09:06:02;;;;;;;2.90;2.60;;;;;;;21.70;88.37;96213.80;108402;1268;22699;-77
2022/08/14 09:08:36;;;;;;;2.80;2.60;;;;;;;21.59;89.10;96214.00;108481;1267;25738;-77
2022/08/14 09:11:11;;;;;;;2.90;2.50;;;;;;;21.46;89.49;96216.15;108414;1268;23848;-77
2022/08/14 09:13:43;;;;;;;3.10;2.80;;;;;;;21.41;90.83;96214.23;108478;1268;22659;-77
2022/08/14 09:16:14;;;;;;;3.00;2.70;;;;;;;21.47;90.82;96209.23;108415;1267;22638;-77
2022/08/14 09:18:46;;;;;;;2.90;2.60;;;;;;;21.54;91.51;96207.59;108398;1268;38812;-77
2022/08/14 09:21:18;;;;;;;2.50;2.10;;;;;;;21.54;90.97;96205.91;108484;1265;22522;-77
2022/08/14 09:23:49;;;;;;;3.20;2.90;;;;;;;21.48;91.25;96211.64;108483;1268;23839;-77
2022/08/14 09:26:21;;;;;;;2.50;2.30;;;;;;;21.48;91.32;96210.71;108480;1268;22636;-77
2022/08/14 09:28:52;;;;;;;2.50;2.30;;;;;;;21.48;91.25;96208.02;108308;1268;28745;-77
2022/08/14 09:31:25;;;;;;;3.20;2.50;;;;;;;21.47;91.78;96208.47;108456;1267;22545;-76
2022/08/14 09:34:09;;;;;;;2.90;2.60;;;;;;;21.51;92.38;96204.45;108403;1268;22542;-77
2022/08/14 09:36:59;;;;;;;2.80;2.60;;;;;;;21.61;92.33;96206.25;108500;1267;25273;-77
2022/08/14 09:39:44;;;;;;;4.40;2.70;;;;;;;21.64;92.14;96205.45;108355;1267;37629;-77
2022/08/14 09:42:31;;;;;;;3.20;2.90;;;;;;;21.71;92.28;96210.44;108379;1268;22468;-76
2022/08/14 09:45:13;;;;;;;2.90;2.50;;;;;;;21.72;91.85;96209.99;108467;1268;23695;-76
2022/08/14 09:47:50;;;;;;;2.40;2.20;;;;;;;21.70;91.53;96213.12;108461;1268;23228;-77
2022/08/14 09:50:28;;;;;;;3.60;2.60;;;;;;;21.71;91.98;96216.45;108411;1268;25227;-77
2022/08/14 09:53:02;;;;;;;3.10;2.50;;;;;;;21.85;92.19;96214.45;108516;1268;22637;-77
2022/08/14 09:55:35;;;;;;;3.00;2.50;;;;;;;21.89;91.81;96217.22;108479;1268;22528;-77
2022/08/14 09:58:16;;;;;;;2.60;2.40;;;;;;;22.02;91.85;96219.51;108432;1268;25853;-77
2022/08/14 10:00:49;;;;;;;3.20;2.00;;;;;;;22.14;91.94;96222.11;108455;1268;22467;-77
2022/08/14 10:03:33;;;;;;;2.40;2.00;;;;;;;22.25;91.80;96218.82;108406;1268;24222;-77
2022/08/14 10:06:10;;;;;;;2.00;1.90;;;;;;;22.27;90.34;96219.55;108413;1267;22552;-77
2022/08/14 10:08:47;;;;;;;2.40;2.20;;;;;;;22.28;90.01;96212.38;108450;1267;30203;-77
2022/08/14 10:11:21;;;;;;;2.50;2.20;;;;;;;22.34;89.86;96210.52;108443;1267;22695;-77
2022/08/14 10:13:57;;;;;;;2.60;2.30;;;;;;;22.42;89.45;96206.17;108423;1268;25121;-77
2022/08/14 10:16:41;;;;;;;2.60;2.40;;;;;;;22.56;89.89;96201.36;108384;1268;22801;-77
2022/08/14 10:19:14;;;;;;;3.50;2.70;;;;;;;22.80;90.27;96200.74;108289;1267;28913;-77
2022/08/14 10:21:57;;;;;;;2.80;2.60;;;;;;;22.94;89.26;96196.39;108423;1267;22654;-77
2022/08/14 10:24:30;;;;;;;3.40;2.50;;;;;;;23.03;88.65;96191.39;108495;1266;22616;-77
2022/08/14 10:27:03;;;;;;;2.70;2.50;;;;;;;23.17;88.27;96189.15;108432;1267;24002;-77
2022/08/14 10:29:38;;;;;;;2.70;2.50;;;;;;;23.37;88.97;96185.81;108427;1267;33936;-77
2022/08/14 10:32:10;;;;;;;3.00;2.80;;;;;;;23.58;87.68;96182.33;108396;1267;22464;-77
2022/08/14 10:34:42;;;;;;;3.40;3.10;;;;;;;23.74;86.68;96192.15;108411;1267;23842;-77
2022/08/14 10:37:15;;;;;;;2.90;2.70;;;;;;;23.86;85.74;96191.78;108425;1268;24980;-77
2022/08/14 10:39:59;;;;;;;3.50;3.20;;;;;;;23.97;84.19;96193.27;108436;1268;27854;-77
2022/08/14 10:42:39;;;;;;;3.30;3.00;;;;;;;24.00;83.95;96200.34;108461;1268;22669;-77
2022/08/14 10:45:19;;;;;;;;;;;;;;;24.18;83.48;96200.30;108551;1268;25391;-77
2022/08/14 10:47:52;;;;;;;3.40;3.10;;;;;;;23.97;81.52;96202.70;108390;1267;35676;-77
2022/08/14 10:50:34;;;;;;;3.20;2.90;;;;;;;23.87;82.18;96201.54;108418;1267;22551;-77
2022/08/14 10:53:05;;;;;;;3.50;3.20;;;;;;;23.89;82.00;96200.54;108398;1267;22509;-77
2022/08/14 10:55:39;;;;;;;3.30;3.00;;;;;;;23.88;82.15;96202.09;108501;1268;22863;-77
2022/08/14 10:58:11;;;;;;;3.60;3.10;;;;;;;24.09;83.08;96201.65;108300;1267;22753;-77
2022/08/14 11:00:54;;;;;;;4.60;3.30;;;;;;;24.26;82.74;96201.23;108494;1267;22576;-77
2022/08/14 11:03:37;;;;;;;3.70;3.40;;;;;;;24.47;83.23;96201.70;108437;1267;22547;-77
2022/08/14 11:06:19;;;;;;;4.10;3.70;;;;;;;24.74;83.04;96196.42;108478;1268;22595;-77
2022/08/14 11:08:51;;;;;;;4.00;3.50;;;;;;;24.93;81.47;96201.86;108385;1268;87981;-77
2022/08/14 11:11:26;;;;;;;3.60;3.30;;;;;;;24.94;81.41;96194.42;108544;1266;22962;-77
2022/08/14 11:13:58;;;;;;;3.40;3.10;;;;;;;25.05;81.05;96192.64;108482;1267;22565;-77
2022/08/14 11:16:31;;;;;;;4.70;3.60;;;;;;;25.05;80.22;96195.66;108446;1267;22585;-77
2022/08/14 11:19:11;;;;;;;3.90;3.40;;;;;;;25.25;81.52;96189.90;108324;1267;39266;-77
2022/08/14 11:21:49;;;;;;;3.30;3.00;;;;;;;25.58;81.58;96188.44;108481;1267;22572;-77
2022/08/14 11:24:27;;;;;;;3.80;3.50;;;;;;;25.80;80.95;96186.45;108387;1267;23805;-77
2022/08/14 11:27:01;;;;;;;4.00;3.20;;;;;;;26.08;80.03;96186.63;108518;1267;22692;-77
2022/08/14 11:29:37;;;;;;;3.50;3.20;;;;;;;26.16;77.76;96188.26;108410;1266;36683;-77
2022/08/14 11:32:11;;;;;;;3.30;3.00;;;;;;;26.13;78.28;96190.42;108441;1267;23089;-77
2022/08/14 11:34:42;;;;;;;3.80;3.50;;;;;;;26.34;78.82;96194.45;108481;1267;25249;-77
2022/08/14 11:37:14;;;;;;;4.10;3.40;;;;;;;26.42;77.49;96198.80;108504;1267;24227;-77
2022/08/14 11:39:47;;;;;;;3.80;3.50;;;;;;;26.35;76.12;96199.89;108439;1268;31479;-77
2022/08/14 11:42:25;;;;;;;3.90;3.30;;;;;;;26.17;75.36;96195.86;108407;1267;22571;-77
2022/08/14 11:45:03;;;;;;;4.40;3.70;;;;;;;26.00;75.07;96196.56;108503;1268;23925;-77
2022/08/14 11:47:39;;;;;;;3.60;3.20;;;;;;;25.70;74.43;96193.11;108472;1267;25404;-77
2022/08/14 11:50:23;;;;;;;4.00;3.60;;;;;;;25.45;75.49;96192.83;108523;1267;22478;-77
2022/08/14 11:52:56;;;;;;;3.90;3.60;;;;;;;25.25;76.00;96194.80;108384;1267;23228;-77
2022/08/14 11:55:34;;;;;;;4.70;3.80;;;;;;;25.04;75.73;96198.83;108410;1267;25965;-77
2022/08/14 11:58:08;;;;;;;3.80;3.40;;;;;;;24.79;76.00;96199.63;108356;1267;32588;-77
2022/08/14 12:00:52;;;;;;;7.10;3.50;;;;;;;24.65;76.65;96198.48;108403;1268;22532;-77